sensor_id;sensor_type;location;lat;lon;timestamp;P1;durP1;ratioP1;P2;durP2;ratioP2
52023;SDS011;38038;45.922;13.604;2023-03-23T00:00:51;18.73;;;17.23;;
52023;SDS011;38038;45.922;13.604;2023-03-23T00:03:19;17.97;;;16.30;;
52023;SDS011;38038;45.922;13.604;2023-03-23T00:05:46;19.33;;;17.77;;
52023;SDS011;38038;45.922;13.604;2023-03-23T00:08:18;19.13;;;17.50;;
52023;SDS011;38038;45.922;13.604;2023-03-23T00:10:48;18.47;;;17.00;;
52023;SDS011;38038;45.922;13.604;2023-03-23T00:15:48;21.60;;;19.67;;
52023;SDS011;38038;45.922;13.604;2023-03-23T00:18:17;22.40;;;20.13;;
52023;SDS011;38038;45.922;13.604;2023-03-23T00:20:56;21.23;;;19.33;;
52023;SDS011;38038;45.922;13.604;2023-03-23T00:23:25;21.13;;;19.30;;
52023;SDS011;38038;45.922;13.604;2023-03-23T00:25:54;22.63;;;20.83;;
52023;SDS011;38038;45.922;13.604;2023-03-23T00:28:24;23.27;;;21.47;;
52023;SDS011;38038;45.922;13.604;2023-03-23T00:30:55;23.00;;;21.20;;
52023;SDS011;38038;45.922;13.604;2023-03-23T00:33:21;22.03;;;20.13;;
52023;SDS011;38038;45.922;13.604;2023-03-23T00:35:48;20.23;;;18.73;;
52023;SDS011;38038;45.922;13.604;2023-03-23T00:38:17;19.57;;;17.97;;
52023;SDS011;38038;45.922;13.604;2023-03-23T00:40:44;20.90;;;19.30;;
52023;SDS011;38038;45.922;13.604;2023-03-23T00:43:12;20.93;;;19.23;;
52023;SDS011;38038;45.922;13.604;2023-03-23T00:45:42;21.87;;;20.17;;
52023;SDS011;38038;45.922;13.604;2023-03-23T00:48:23;21.33;;;19.80;;
52023;SDS011;38038;45.922;13.604;2023-03-23T00:50:50;23.37;;;21.30;;
52023;SDS011;38038;45.922;13.604;2023-03-23T00:53:19;21.73;;;20.10;;
52023;SDS011;38038;45.922;13.604;2023-03-23T00:55:45;20.07;;;18.47;;
52023;SDS011;38038;45.922;13.604;2023-03-23T00:58:12;21.13;;;19.07;;
52023;SDS011;38038;45.922;13.604;2023-03-23T01:00:39;20.47;;;18.97;;
52023;SDS011;38038;45.922;13.604;2023-03-23T01:03:06;20.90;;;19.07;;
52023;SDS011;38038;45.922;13.604;2023-03-23T01:05:36;18.40;;;17.00;;
52023;SDS011;38038;45.922;13.604;2023-03-23T01:08:03;21.63;;;19.93;;
52023;SDS011;38038;45.922;13.604;2023-03-23T01:10:30;20.30;;;18.60;;
52023;SDS011;38038;45.922;13.604;2023-03-23T01:13:04;21.67;;;19.80;;
52023;SDS011;38038;45.922;13.604;2023-03-23T01:15:30;20.90;;;19.20;;
52023;SDS011;38038;45.922;13.604;2023-03-23T01:17:56;20.07;;;18.47;;
52023;SDS011;38038;45.922;13.604;2023-03-23T01:20:22;21.77;;;20.17;;
52023;SDS011;38038;45.922;13.604;2023-03-23T01:22:49;20.77;;;19.00;;
52023;SDS011;38038;45.922;13.604;2023-03-23T01:25:15;19.83;;;18.23;;
52023;SDS011;38038;45.922;13.604;2023-03-23T01:27:41;21.47;;;19.40;;
52023;SDS011;38038;45.922;13.604;2023-03-23T01:30:07;19.03;;;17.50;;
52023;SDS011;38038;45.922;13.604;2023-03-23T01:32:37;22.33;;;20.70;;
52023;SDS011;38038;45.922;13.604;2023-03-23T01:35:03;21.37;;;19.77;;
52023;SDS011;38038;45.922;13.604;2023-03-23T01:37:29;21.03;;;19.37;;
52023;SDS011;38038;45.922;13.604;2023-03-23T01:39:56;21.13;;;19.53;;
52023;SDS011;38038;45.922;13.604;2023-03-23T01:42:23;21.23;;;19.63;;
52023;SDS011;38038;45.922;13.604;2023-03-23T01:45:20;21.25;;;19.48;;
52023;SDS011;38038;45.922;13.604;2023-03-23T01:47:58;20.93;;;19.23;;
52023;SDS011;38038;45.922;13.604;2023-03-23T01:50:56;20.70;;;19.07;;
52023;SDS011;38038;45.922;13.604;2023-03-23T01:53:32;21.80;;;20.30;;
52023;SDS011;38038;45.922;13.604;2023-03-23T01:56:03;20.53;;;18.93;;
52023;SDS011;38038;45.922;13.604;2023-03-23T01:58:32;18.87;;;17.43;;
52023;SDS011;38038;45.922;13.604;2023-03-23T02:01:01;21.60;;;19.87;;
52023;SDS011;38038;45.922;13.604;2023-03-23T02:03:31;20.57;;;19.10;;
52023;SDS011;38038;45.922;13.604;2023-03-23T02:05:59;19.70;;;18.00;;
52023;SDS011;38038;45.922;13.604;2023-03-23T02:08:28;19.93;;;17.87;;
52023;SDS011;38038;45.922;13.604;2023-03-23T02:10:57;21.63;;;19.63;;
52023;SDS011;38038;45.922;13.604;2023-03-23T02:13:23;20.43;;;18.93;;
52023;SDS011;38038;45.922;13.604;2023-03-23T02:21:13;20.50;;;18.90;;
52023;SDS011;38038;45.922;13.604;2023-03-23T02:31:45;19.23;;;17.50;;
52023;SDS011;38038;45.922;13.604;2023-03-23T02:34:40;18.67;;;17.37;;
52023;SDS011;38038;45.922;13.604;2023-03-23T02:37:14;17.57;;;16.23;;
52023;SDS011;38038;45.922;13.604;2023-03-23T02:39:45;19.47;;;17.93;;
52023;SDS011;38038;45.922;13.604;2023-03-23T02:42:19;18.67;;;17.40;;
52023;SDS011;38038;45.922;13.604;2023-03-23T02:44:53;18.60;;;16.83;;
52023;SDS011;38038;45.922;13.604;2023-03-23T02:47:23;18.07;;;16.80;;
52023;SDS011;38038;45.922;13.604;2023-03-23T02:49:52;18.43;;;16.73;;
52023;SDS011;38038;45.922;13.604;2023-03-23T02:52:24;19.30;;;17.90;;
52023;SDS011;38038;45.922;13.604;2023-03-23T02:54:54;19.00;;;17.60;;
52023;SDS011;38038;45.922;13.604;2023-03-23T02:57:21;17.73;;;16.53;;
52023;SDS011;38038;45.922;13.604;2023-03-23T02:59:48;19.17;;;17.77;;
52023;SDS011;38038;45.922;13.604;2023-03-23T03:02:16;17.13;;;15.90;;
52023;SDS011;38038;45.922;13.604;2023-03-23T03:04:48;19.03;;;17.63;;
52023;SDS011;38038;45.922;13.604;2023-03-23T03:10:36;18.70;;;17.30;;
52023;SDS011;38038;45.922;13.604;2023-03-23T03:14:10;17.40;;;15.95;;
52023;SDS011;38038;45.922;13.604;2023-03-23T03:16:07;17.97;;;16.57;;
52023;SDS011;38038;45.922;13.604;2023-03-23T03:21:23;17.13;;;15.80;;
52023;SDS011;38038;45.922;13.604;2023-03-23T03:23:52;18.70;;;17.30;;
52023;SDS011;38038;45.922;13.604;2023-03-23T03:26:21;19.60;;;18.17;;
52023;SDS011;38038;45.922;13.604;2023-03-23T03:28:51;18.77;;;17.00;;
52023;SDS011;38038;45.922;13.604;2023-03-23T03:31:19;18.63;;;17.13;;
52023;SDS011;38038;45.922;13.604;2023-03-23T03:33:52;18.10;;;16.80;;
52023;SDS011;38038;45.922;13.604;2023-03-23T03:36:20;17.10;;;15.90;;
52023;SDS011;38038;45.922;13.604;2023-03-23T03:38:50;17.93;;;16.63;;
52023;SDS011;38038;45.922;13.604;2023-03-23T03:41:17;17.70;;;16.40;;
52023;SDS011;38038;45.922;13.604;2023-03-23T03:43:44;17.67;;;16.37;;
52023;SDS011;38038;45.922;13.604;2023-03-23T03:46:09;18.37;;;16.83;;
52023;SDS011;38038;45.922;13.604;2023-03-23T03:48:35;18.73;;;17.33;;
52023;SDS011;38038;45.922;13.604;2023-03-23T03:51:01;20.30;;;18.73;;
52023;SDS011;38038;45.922;13.604;2023-03-23T03:53:27;20.20;;;18.70;;
52023;SDS011;38038;45.922;13.604;2023-03-23T03:55:53;18.93;;;17.63;;
52023;SDS011;38038;45.922;13.604;2023-03-23T03:58:25;18.07;;;16.63;;
52023;SDS011;38038;45.922;13.604;2023-03-23T04:00:56;20.27;;;18.77;;
52023;SDS011;38038;45.922;13.604;2023-03-23T04:03:24;20.73;;;19.20;;
52023;SDS011;38038;45.922;13.604;2023-03-23T04:05:51;19.27;;;17.77;;
52023;SDS011;38038;45.922;13.604;2023-03-23T04:08:17;19.20;;;17.63;;
52023;SDS011;38038;45.922;13.604;2023-03-23T04:10:43;20.80;;;19.43;;
52023;SDS011;38038;45.922;13.604;2023-03-23T04:13:10;19.63;;;18.10;;
52023;SDS011;38038;45.922;13.604;2023-03-23T04:15:35;19.57;;;18.03;;
52023;SDS011;38038;45.922;13.604;2023-03-23T04:18:01;18.87;;;17.37;;
52023;SDS011;38038;45.922;13.604;2023-03-23T04:20:27;19.90;;;18.20;;
52023;SDS011;38038;45.922;13.604;2023-03-23T04:22:52;20.37;;;18.90;;
52023;SDS011;38038;45.922;13.604;2023-03-23T04:25:20;19.13;;;17.57;;
52023;SDS011;38038;45.922;13.604;2023-03-23T04:27:47;20.07;;;18.20;;
52023;SDS011;38038;45.922;13.604;2023-03-23T04:30:20;18.97;;;17.67;;
52023;SDS011;38038;45.922;13.604;2023-03-23T04:32:48;19.37;;;17.77;;
52023;SDS011;38038;45.922;13.604;2023-03-23T04:35:20;19.17;;;17.87;;
52023;SDS011;38038;45.922;13.604;2023-03-23T04:37:49;18.40;;;17.10;;
52023;SDS011;38038;45.922;13.604;2023-03-23T04:40:16;20.13;;;18.63;;
52023;SDS011;38038;45.922;13.604;2023-03-23T04:42:43;19.53;;;17.90;;
52023;SDS011;38038;45.922;13.604;2023-03-23T04:45:15;18.77;;;17.27;;
52023;SDS011;38038;45.922;13.604;2023-03-23T04:47:46;19.90;;;18.30;;
52023;SDS011;38038;45.922;13.604;2023-03-23T04:50:22;20.03;;;18.43;;
52023;SDS011;38038;45.922;13.604;2023-03-23T04:52:53;17.83;;;16.53;;
52023;SDS011;38038;45.922;13.604;2023-03-23T04:55:22;19.37;;;17.97;;
52023;SDS011;38038;45.922;13.604;2023-03-23T04:57:48;19.30;;;17.80;;
52023;SDS011;38038;45.922;13.604;2023-03-23T05:00:14;19.67;;;18.37;;
52023;SDS011;38038;45.922;13.604;2023-03-23T05:02:45;19.87;;;18.23;;
52023;SDS011;38038;45.922;13.604;2023-03-23T05:05:12;18.77;;;17.43;;
52023;SDS011;38038;45.922;13.604;2023-03-23T05:07:39;19.30;;;17.90;;
52023;SDS011;38038;45.922;13.604;2023-03-23T05:10:07;20.40;;;18.90;;
52023;SDS011;38038;45.922;13.604;2023-03-23T05:12:34;19.03;;;17.73;;
52023;SDS011;38038;45.922;13.604;2023-03-23T05:15:00;19.87;;;18.37;;
52023;SDS011;38038;45.922;13.604;2023-03-23T05:17:26;22.10;;;20.33;;
52023;SDS011;38038;45.922;13.604;2023-03-23T05:19:52;19.53;;;18.07;;
52023;SDS011;38038;45.922;13.604;2023-03-23T05:22:18;21.93;;;20.33;;
52023;SDS011;38038;45.922;13.604;2023-03-23T05:24:46;21.60;;;20.00;;
52023;SDS011;38038;45.922;13.604;2023-03-23T05:27:12;18.90;;;17.27;;
52023;SDS011;38038;45.922;13.604;2023-03-23T05:29:39;19.77;;;18.07;;
52023;SDS011;38038;45.922;13.604;2023-03-23T05:32:06;18.67;;;17.27;;
52023;SDS011;38038;45.922;13.604;2023-03-23T05:34:33;19.97;;;18.20;;
52023;SDS011;38038;45.922;13.604;2023-03-23T05:37:00;18.80;;;17.33;;
52023;SDS011;38038;45.922;13.604;2023-03-23T05:39:27;18.93;;;17.47;;
52023;SDS011;38038;45.922;13.604;2023-03-23T05:41:54;17.77;;;16.33;;
52023;SDS011;38038;45.922;13.604;2023-03-23T05:44:20;18.27;;;16.87;;
52023;SDS011;38038;45.922;13.604;2023-03-23T05:46:46;17.80;;;16.33;;
52023;SDS011;38038;45.922;13.604;2023-03-23T05:49:13;16.23;;;15.13;;
52023;SDS011;38038;45.922;13.604;2023-03-23T05:51:42;18.17;;;16.57;;
52023;SDS011;38038;45.922;13.604;2023-03-23T05:54:09;17.63;;;15.97;;
52023;SDS011;38038;45.922;13.604;2023-03-23T05:56:35;18.97;;;17.57;;
52023;SDS011;38038;45.922;13.604;2023-03-23T05:59:01;19.50;;;18.03;;
52023;SDS011;38038;45.922;13.604;2023-03-23T06:01:27;84.87;;;79.10;;
52023;SDS011;38038;45.922;13.604;2023-03-23T06:03:53;19.13;;;17.33;;
52023;SDS011;38038;45.922;13.604;2023-03-23T06:06:24;20.40;;;18.67;;
52023;SDS011;38038;45.922;13.604;2023-03-23T06:08:54;20.23;;;18.63;;
52023;SDS011;38038;45.922;13.604;2023-03-23T06:11:22;18.13;;;16.60;;
52023;SDS011;38038;45.922;13.604;2023-03-23T06:13:51;17.60;;;16.20;;
52023;SDS011;38038;45.922;13.604;2023-03-23T06:16:17;17.27;;;15.90;;
52023;SDS011;38038;45.922;13.604;2023-03-23T06:18:43;18.40;;;16.70;;
52023;SDS011;38038;45.922;13.604;2023-03-23T06:21:10;28.73;;;25.93;;
52023;SDS011;38038;45.922;13.604;2023-03-23T06:23:36;25.80;;;23.33;;
52023;SDS011;38038;45.922;13.604;2023-03-23T06:26:03;20.27;;;18.47;;
52023;SDS011;38038;45.922;13.604;2023-03-23T06:28:32;19.77;;;18.00;;
52023;SDS011;38038;45.922;13.604;2023-03-23T06:31:02;25.60;;;16.50;;
52023;SDS011;38038;45.922;13.604;2023-03-23T06:33:31;17.73;;;16.30;;
52023;SDS011;38038;45.922;13.604;2023-03-23T06:35:59;18.37;;;16.97;;
52023;SDS011;38038;45.922;13.604;2023-03-23T06:38:25;16.80;;;15.50;;
52023;SDS011;38038;45.922;13.604;2023-03-23T06:40:54;18.03;;;15.87;;
52023;SDS011;38038;45.922;13.604;2023-03-23T06:43:21;17.87;;;16.53;;
52023;SDS011;38038;45.922;13.604;2023-03-23T06:45:47;17.43;;;15.93;;
52023;SDS011;38038;45.922;13.604;2023-03-23T06:48:13;17.80;;;16.20;;
52023;SDS011;38038;45.922;13.604;2023-03-23T06:50:42;21.07;;;16.50;;
52023;SDS011;38038;45.922;13.604;2023-03-23T06:53:09;18.60;;;17.07;;
52023;SDS011;38038;45.922;13.604;2023-03-23T06:55:35;18.03;;;16.23;;
52023;SDS011;38038;45.922;13.604;2023-03-23T06:58:01;20.77;;;16.27;;
52023;SDS011;38038;45.922;13.604;2023-03-23T07:00:27;16.97;;;15.20;;
52023;SDS011;38038;45.922;13.604;2023-03-23T07:02:54;17.77;;;16.23;;
52023;SDS011;38038;45.922;13.604;2023-03-23T07:05:20;17.17;;;15.63;;
52023;SDS011;38038;45.922;13.604;2023-03-23T07:07:46;17.47;;;16.03;;
52023;SDS011;38038;45.922;13.604;2023-03-23T07:10:12;16.93;;;15.47;;
52023;SDS011;38038;45.922;13.604;2023-03-23T07:12:37;21.87;;;16.40;;
52023;SDS011;38038;45.922;13.604;2023-03-23T07:15:03;17.70;;;16.27;;
52023;SDS011;38038;45.922;13.604;2023-03-23T07:17:30;16.40;;;15.20;;
52023;SDS011;38038;45.922;13.604;2023-03-23T07:19:56;16.77;;;15.37;;
52023;SDS011;38038;45.922;13.604;2023-03-23T07:22:22;19.13;;;17.70;;
52023;SDS011;38038;45.922;13.604;2023-03-23T07:24:47;19.30;;;17.20;;
52023;SDS011;38038;45.922;13.604;2023-03-23T07:27:13;15.63;;;14.40;;
52023;SDS011;38038;45.922;13.604;2023-03-23T07:29:39;16.43;;;15.13;;
52023;SDS011;38038;45.922;13.604;2023-03-23T07:32:05;16.47;;;15.00;;
52023;SDS011;38038;45.922;13.604;2023-03-23T07:34:35;19.53;;;18.13;;
52023;SDS011;38038;45.922;13.604;2023-03-23T07:37:02;18.30;;;16.67;;
52023;SDS011;38038;45.922;13.604;2023-03-23T07:39:28;16.90;;;15.50;;
52023;SDS011;38038;45.922;13.604;2023-03-23T07:41:54;16.30;;;14.60;;
52023;SDS011;38038;45.922;13.604;2023-03-23T07:44:20;16.30;;;15.00;;
52023;SDS011;38038;45.922;13.604;2023-03-23T07:46:46;17.77;;;15.90;;
52023;SDS011;38038;45.922;13.604;2023-03-23T07:49:12;16.97;;;15.33;;
52023;SDS011;38038;45.922;13.604;2023-03-23T07:51:37;16.83;;;15.40;;
52023;SDS011;38038;45.922;13.604;2023-03-23T07:54:03;17.43;;;15.43;;
52023;SDS011;38038;45.922;13.604;2023-03-23T07:56:30;16.10;;;14.77;;
52023;SDS011;38038;45.922;13.604;2023-03-23T07:58:56;17.80;;;16.57;;
52023;SDS011;38038;45.922;13.604;2023-03-23T08:01:22;15.80;;;14.45;;
52023;SDS011;38038;45.922;13.604;2023-03-23T08:03:49;14.80;;;13.80;;
52023;SDS011;38038;45.922;13.604;2023-03-23T08:06:16;14.77;;;13.67;;
52023;SDS011;38038;45.922;13.604;2023-03-23T08:08:41;15.70;;;14.60;;
52023;SDS011;38038;45.922;13.604;2023-03-23T08:11:07;15.18;;;14.07;;
52023;SDS011;38038;45.922;13.604;2023-03-23T08:13:33;16.80;;;15.45;;
52023;SDS011;38038;45.922;13.604;2023-03-23T08:16:00;15.65;;;14.63;;
52023;SDS011;38038;45.922;13.604;2023-03-23T08:18:30;15.43;;;14.38;;
52023;SDS011;38038;45.922;13.604;2023-03-23T08:20:56;16.75;;;15.55;;
52023;SDS011;38038;45.922;13.604;2023-03-23T08:23:22;15.45;;;14.25;;
52023;SDS011;38038;45.922;13.604;2023-03-23T08:25:48;14.07;;;13.07;;
52023;SDS011;38038;45.922;13.604;2023-03-23T08:28:14;14.15;;;13.05;;
52023;SDS011;38038;45.922;13.604;2023-03-23T08:30:40;15.95;;;14.70;;
52023;SDS011;38038;45.922;13.604;2023-03-23T08:33:06;14.10;;;13.20;;
52023;SDS011;38038;45.922;13.604;2023-03-23T08:35:33;12.95;;;12.15;;
52023;SDS011;38038;45.922;13.604;2023-03-23T08:37:59;14.20;;;13.13;;
52023;SDS011;38038;45.922;13.604;2023-03-23T08:40:25;13.30;;;12.40;;
52023;SDS011;38038;45.922;13.604;2023-03-23T08:42:52;13.35;;;12.45;;
52023;SDS011;38038;45.922;13.604;2023-03-23T08:45:20;14.32;;;13.07;;
52023;SDS011;38038;45.922;13.604;2023-03-23T08:47:47;14.90;;;13.88;;
52023;SDS011;38038;45.922;13.604;2023-03-23T08:50:17;14.18;;;12.80;;
52023;SDS011;38038;45.922;13.604;2023-03-23T08:52:44;16.13;;;14.85;;
52023;SDS011;38038;45.922;13.604;2023-03-23T08:55:10;14.70;;;13.40;;
52023;SDS011;38038;45.922;13.604;2023-03-23T08:57:37;16.13;;;12.35;;
52023;SDS011;38038;45.922;13.604;2023-03-23T09:00:04;14.02;;;12.93;;
52023;SDS011;38038;45.922;13.604;2023-03-23T09:02:49;14.30;;;13.32;;
52023;SDS011;38038;45.922;13.604;2023-03-23T09:05:17;13.65;;;12.77;;
52023;SDS011;38038;45.922;13.604;2023-03-23T09:07:46;12.38;;;11.48;;
52023;SDS011;38038;45.922;13.604;2023-03-23T09:10:14;12.85;;;11.95;;
52023;SDS011;38038;45.922;13.604;2023-03-23T09:12:41;13.68;;;12.63;;
52023;SDS011;38038;45.922;13.604;2023-03-23T09:15:07;15.48;;;14.35;;
52023;SDS011;38038;45.922;13.604;2023-03-23T09:17:39;13.48;;;12.45;;
52023;SDS011;38038;45.922;13.604;2023-03-23T09:20:07;13.38;;;12.32;;
52023;SDS011;38038;45.922;13.604;2023-03-23T09:22:38;13.68;;;12.77;;
52023;SDS011;38038;45.922;13.604;2023-03-23T09:25:06;12.68;;;11.88;;
52023;SDS011;38038;45.922;13.604;2023-03-23T09:27:33;13.57;;;12.30;;
52023;SDS011;38038;45.922;13.604;2023-03-23T09:30:02;13.45;;;12.43;;
52023;SDS011;38038;45.922;13.604;2023-03-23T09:32:31;13.40;;;12.40;;
52023;SDS011;38038;45.922;13.604;2023-03-23T09:35:01;12.38;;;11.48;;
52023;SDS011;38038;45.922;13.604;2023-03-23T09:37:29;12.80;;;11.93;;
52023;SDS011;38038;45.922;13.604;2023-03-23T09:39:55;13.90;;;12.73;;
52023;SDS011;38038;45.922;13.604;2023-03-23T09:55:13;13.32;;;12.43;;
52023;SDS011;38038;45.922;13.604;2023-03-23T10:00:18;12.45;;;11.65;;
52023;SDS011;38038;45.922;13.604;2023-03-23T10:02:56;12.60;;;11.70;;
52023;SDS011;38038;45.922;13.604;2023-03-23T10:05:47;13.00;;;12.10;;
52023;SDS011;38038;45.922;13.604;2023-03-23T10:08:19;12.73;;;11.70;;
52023;SDS011;38038;45.922;13.604;2023-03-23T10:10:54;11.90;;;11.20;;
52023;SDS011;38038;45.922;13.604;2023-03-23T10:13:51;12.07;;;11.25;;
52023;SDS011;38038;45.922;13.604;2023-03-23T10:16:54;11.98;;;11.23;;
52023;SDS011;38038;45.922;13.604;2023-03-23T10:22:17;11.93;;;11.15;;
52023;SDS011;38038;45.922;13.604;2023-03-23T10:32:53;10.32;;;9.55;;
52023;SDS011;38038;45.922;13.604;2023-03-23T10:35:28;10.48;;;9.63;;
52023;SDS011;38038;45.922;13.604;2023-03-23T10:38:02;10.88;;;10.07;;
52023;SDS011;38038;45.922;13.604;2023-03-23T10:40:31;9.65;;;9.02;;
52023;SDS011;38038;45.922;13.604;2023-03-23T10:43:00;10.40;;;9.80;;
52023;SDS011;38038;45.922;13.604;2023-03-23T10:45:27;10.95;;;10.35;;
52023;SDS011;38038;45.922;13.604;2023-03-23T10:48:14;9.88;;;9.27;;
52023;SDS011;38038;45.922;13.604;2023-03-23T10:50:50;9.32;;;8.82;;
52023;SDS011;38038;45.922;13.604;2023-03-23T10:53:21;9.93;;;9.15;;
52023;SDS011;38038;45.922;13.604;2023-03-23T10:55:50;10.02;;;9.40;;
52023;SDS011;38038;45.922;13.604;2023-03-23T10:58:25;10.15;;;9.50;;
52023;SDS011;38038;45.922;13.604;2023-03-23T11:00:57;11.68;;;11.05;;
52023;SDS011;38038;45.922;13.604;2023-03-23T11:03:34;11.60;;;10.65;;
52023;SDS011;38038;45.922;13.604;2023-03-23T11:06:08;12.02;;;11.30;;
52023;SDS011;38038;45.922;13.604;2023-03-23T11:08:55;11.90;;;11.20;;
52023;SDS011;38038;45.922;13.604;2023-03-23T11:11:28;11.27;;;10.65;;
52023;SDS011;38038;45.922;13.604;2023-03-23T11:14:01;10.23;;;9.63;;
52023;SDS011;38038;45.922;13.604;2023-03-23T11:16:41;10.40;;;9.70;;
52023;SDS011;38038;45.922;13.604;2023-03-23T11:19:20;10.17;;;9.63;;
52023;SDS011;38038;45.922;13.604;2023-03-23T11:21:51;10.23;;;9.63;;
52023;SDS011;38038;45.922;13.604;2023-03-23T11:24:21;9.68;;;9.18;;
52023;SDS011;38038;45.922;13.604;2023-03-23T11:26:48;9.75;;;8.98;;
52023;SDS011;38038;45.922;13.604;2023-03-23T11:31:45;8.63;;;8.05;;
52023;SDS011;38038;45.922;13.604;2023-03-23T11:36:52;9.38;;;8.77;;
52023;SDS011;38038;45.922;13.604;2023-03-23T11:42:00;9.80;;;9.20;;
52023;SDS011;38038;45.922;13.604;2023-03-23T11:44:40;9.88;;;8.98;;
52023;SDS011;38038;45.922;13.604;2023-03-23T11:49:45;9.88;;;9.20;;
52023;SDS011;38038;45.922;13.604;2023-03-23T11:52:40;9.10;;;8.60;;
52023;SDS011;38038;45.922;13.604;2023-03-23T11:55:53;8.95;;;8.45;;
52023;SDS011;38038;45.922;13.604;2023-03-23T11:58:33;8.98;;;8.48;;
52023;SDS011;38038;45.922;13.604;2023-03-23T12:01:06;9.57;;;8.77;;
52023;SDS011;38038;45.922;13.604;2023-03-23T12:04:30;10.43;;;8.75;;
52023;SDS011;38038;45.922;13.604;2023-03-23T12:23:23;8.30;;;7.80;;
52023;SDS011;38038;45.922;13.604;2023-03-23T12:32:19;8.43;;;7.93;;
52023;SDS011;38038;45.922;13.604;2023-03-23T12:43:26;9.30;;;8.50;;
52023;SDS011;38038;45.922;13.604;2023-03-23T12:48:29;9.90;;;9.30;;
52023;SDS011;38038;45.922;13.604;2023-03-23T12:56:50;9.80;;;9.23;;
52023;SDS011;38038;45.922;13.604;2023-03-23T13:02:06;8.65;;;8.15;;
52023;SDS011;38038;45.922;13.604;2023-03-23T13:04:40;9.95;;;9.35;;
52023;SDS011;38038;45.922;13.604;2023-03-23T13:07:16;10.90;;;10.18;;
52023;SDS011;38038;45.922;13.604;2023-03-23T13:10:07;8.63;;;8.13;;
52023;SDS011;38038;45.922;13.604;2023-03-23T13:12:47;10.32;;;9.63;;
52023;SDS011;38038;45.922;13.604;2023-03-23T13:30:53;9.02;;;8.43;;
52023;SDS011;38038;45.922;13.604;2023-03-23T13:33:32;9.43;;;8.82;;
52023;SDS011;38038;45.922;13.604;2023-03-23T13:36:04;10.57;;;9.88;;
52023;SDS011;38038;45.922;13.604;2023-03-23T13:38:36;12.52;;;11.52;;
52023;SDS011;38038;45.922;13.604;2023-03-23T13:41:07;9.77;;;9.18;;
52023;SDS011;38038;45.922;13.604;2023-03-23T13:43:37;10.35;;;9.65;;
52023;SDS011;38038;45.922;13.604;2023-03-23T13:46:07;9.13;;;8.52;;
52023;SDS011;38038;45.922;13.604;2023-03-23T13:55:08;10.00;;;9.50;;
52023;SDS011;38038;45.922;13.604;2023-03-23T13:59:58;9.70;;;9.20;;
52023;SDS011;38038;45.922;13.604;2023-03-23T14:02:38;9.00;;;8.50;;
52023;SDS011;38038;45.922;13.604;2023-03-23T14:07:51;8.13;;;7.57;;
52023;SDS011;38038;45.922;13.604;2023-03-23T14:11:13;8.43;;;7.93;;
52023;SDS011;38038;45.922;13.604;2023-03-23T14:18:26;8.80;;;8.30;;
52023;SDS011;38038;45.922;13.604;2023-03-23T14:20:57;8.07;;;7.68;;
52023;SDS011;38038;45.922;13.604;2023-03-23T14:23:24;7.35;;;6.95;;
52023;SDS011;38038;45.922;13.604;2023-03-23T14:25:58;8.75;;;8.25;;
52023;SDS011;38038;45.922;13.604;2023-03-23T14:28:36;8.10;;;7.70;;
52023;SDS011;38038;45.922;13.604;2023-03-23T14:31:03;8.82;;;8.18;;
52023;SDS011;38038;45.922;13.604;2023-03-23T14:33:30;8.05;;;7.55;;
52023;SDS011;38038;45.922;13.604;2023-03-23T14:35:56;7.57;;;7.18;;
52023;SDS011;38038;45.922;13.604;2023-03-23T14:38:24;8.98;;;8.38;;
52023;SDS011;38038;45.922;13.604;2023-03-23T14:40:59;8.73;;;8.15;;
52023;SDS011;38038;45.922;13.604;2023-03-23T14:43:29;8.38;;;7.80;;
52023;SDS011;38038;45.922;13.604;2023-03-23T14:45:59;8.57;;;8.07;;
52023;SDS011;38038;45.922;13.604;2023-03-23T14:48:27;8.52;;;7.93;;
52023;SDS011;38038;45.922;13.604;2023-03-23T14:50:57;7.97;;;7.57;;
52023;SDS011;38038;45.922;13.604;2023-03-23T14:53:37;7.57;;;7.18;;
52023;SDS011;38038;45.922;13.604;2023-03-23T14:56:14;7.43;;;7.03;;
52023;SDS011;38038;45.922;13.604;2023-03-23T14:58:45;8.48;;;7.93;;
52023;SDS011;38038;45.922;13.604;2023-03-23T15:03:56;8.30;;;7.80;;
52023;SDS011;38038;45.922;13.604;2023-03-23T15:06:28;8.60;;;8.10;;
52023;SDS011;38038;45.922;13.604;2023-03-23T15:08:58;11.02;;;10.50;;
52023;SDS011;38038;45.922;13.604;2023-03-23T15:11:28;11.45;;;10.85;;
52023;SDS011;38038;45.922;13.604;2023-03-23T15:13:57;9.75;;;9.05;;
52023;SDS011;38038;45.922;13.604;2023-03-23T15:16:29;9.75;;;9.25;;
52023;SDS011;38038;45.922;13.604;2023-03-23T15:21:34;8.45;;;7.93;;
52023;SDS011;38038;45.922;13.604;2023-03-23T15:24:20;8.35;;;7.85;;
52023;SDS011;38038;45.922;13.604;2023-03-23T15:29:45;9.80;;;9.20;;
52023;SDS011;38038;45.922;13.604;2023-03-23T15:32:13;8.98;;;8.48;;
52023;SDS011;38038;45.922;13.604;2023-03-23T15:34:49;17.23;;;16.23;;
52023;SDS011;38038;45.922;13.604;2023-03-23T15:39:52;9.43;;;8.82;;
52023;SDS011;38038;45.922;13.604;2023-03-23T15:42:29;14.23;;;13.43;;
52023;SDS011;38038;45.922;13.604;2023-03-23T15:45:16;9.20;;;8.70;;
52023;SDS011;38038;45.922;13.604;2023-03-23T15:47:51;10.13;;;9.32;;
52023;SDS011;38038;45.922;13.604;2023-03-23T15:50:18;9.70;;;9.10;;
52023;SDS011;38038;45.922;13.604;2023-03-23T15:52:50;9.98;;;9.32;;
52023;SDS011;38038;45.922;13.604;2023-03-23T15:55:37;9.30;;;8.68;;
52023;SDS011;38038;45.922;13.604;2023-03-23T15:58:10;9.70;;;9.10;;
52023;SDS011;38038;45.922;13.604;2023-03-23T16:00:37;9.45;;;8.85;;
52023;SDS011;38038;45.922;13.604;2023-03-23T16:03:06;9.68;;;9.07;;
52023;SDS011;38038;45.922;13.604;2023-03-23T16:05:36;8.75;;;8.25;;
52023;SDS011;38038;45.922;13.604;2023-03-23T16:08:02;10.25;;;9.65;;
52023;SDS011;38038;45.922;13.604;2023-03-23T16:10:28;10.52;;;9.73;;
52023;SDS011;38038;45.922;13.604;2023-03-23T16:12:54;9.40;;;8.90;;
52023;SDS011;38038;45.922;13.604;2023-03-23T16:15:20;9.52;;;9.02;;
52023;SDS011;38038;45.922;13.604;2023-03-23T16:17:45;10.20;;;9.60;;
52023;SDS011;38038;45.922;13.604;2023-03-23T16:20:15;9.80;;;9.18;;
52023;SDS011;38038;45.922;13.604;2023-03-23T16:22:43;9.07;;;8.57;;
52023;SDS011;38038;45.922;13.604;2023-03-23T16:25:10;10.00;;;9.35;;
52023;SDS011;38038;45.922;13.604;2023-03-23T16:27:37;9.27;;;8.77;;
52023;SDS011;38038;45.922;13.604;2023-03-23T16:30:14;9.85;;;9.35;;
52023;SDS011;38038;45.922;13.604;2023-03-23T16:32:50;9.82;;;9.32;;
52023;SDS011;38038;45.922;13.604;2023-03-23T16:35:17;10.40;;;9.60;;
52023;SDS011;38038;45.922;13.604;2023-03-23T16:37:44;10.38;;;9.48;;
52023;SDS011;38038;45.922;13.604;2023-03-23T16:40:11;10.35;;;9.70;;
52023;SDS011;38038;45.922;13.604;2023-03-23T16:42:37;10.63;;;10.05;;
52023;SDS011;38038;45.922;13.604;2023-03-23T16:45:03;10.90;;;10.27;;
52023;SDS011;38038;45.922;13.604;2023-03-23T16:47:30;13.73;;;12.02;;
52023;SDS011;38038;45.922;13.604;2023-03-23T16:49:55;15.82;;;14.90;;
52023;SDS011;38038;45.922;13.604;2023-03-23T16:52:21;15.13;;;14.25;;
52023;SDS011;38038;45.922;13.604;2023-03-23T16:54:47;12.30;;;11.55;;
52023;SDS011;38038;45.922;13.604;2023-03-23T16:57:12;11.63;;;10.60;;